Airfield :
LOGIN :

Register | Disclaimer

   EN    FR    IT 

 










Legend :    VFR   Marginal VFR   IFR   Intensive IFR   Very Intensive IFR
Visi :
Ceiling :
>= 8 km
>= 3000ft
5 to 8 km
1000 to 3000 ft
1500m to 5 km
500 to 1000 ft
800 to 1500m
200 to 500 ft
< 800m
< 200 ft
Symbols :   Thunderstorms  Fog  Heavy snow  Heavy precipitations  Wind > 20 kt
SIGMETs :     Misc.  Thunderstorms  Icing  Turbulence  Mountain Waves  Volcanic Ashes







- Airport Elevation : 97 ft
- IATA code : EBJ


EKEB - Esbjerg

CURRENT METAR :
  • 141720Z AUTO 31002KT 9999NDV -SHRA OVC016/// 18/16 Q1010

EXPIRED METARs :
  • 141650Z AUTO 31004KT 9999NDV BKN021/// 18/16 Q1010
  • 141620Z AUTO 32006KT 9999NDV BKN017/// 18/15 Q1010
  • 141550Z AUTO 31007KT 9999NDV BKN029/// 19/15 Q1010
  • 141520Z AUTO 29010KT 9999NDV SCT024/// BKN032/// BKN055/// 19/15 Q1010
  • 141450Z AUTO 29011KT 9999NDV BKN026/// BKN046/// 20/15 Q1009

TAF TAF EKEB
Valid from the 14 at 15:00 until the 14 at 22:00 UTC


141418Z 1415/1422 31010KT 9999 BKN020
No reported NOTAMs for that airfield.



MET'MAP, your aeronautical weather chart ! - Copyright ORBIFLY December 2007 - Disclaimer

ORBIFLY MET'MAP TEAM :

Programming & Development : Alexandra Zaïnal
Concept & Development : Baudouin d'Aumeries
Co-Development & Prog : Marc-Olivier Méhu
Technical & hardware support : Manuel Goepfert

Contact : metmap@orbifly.com




SOURCES & CREDITS :

   NOAA